createdAt,value
2019-02-14T00:00:32.443Z,22.43
2019-02-14T00:03:01.924Z,19.93
2019-02-14T00:05:31.658Z,18.60
2019-02-14T00:08:01.133Z,18.83
2019-02-14T00:10:30.879Z,18.43
2019-02-14T00:13:00.351Z,20.37
2019-02-14T00:15:29.818Z,21.30
2019-02-14T00:17:59.309Z,18.10
2019-02-14T00:20:28.774Z,18.37
2019-02-14T00:22:58.267Z,18.77
2019-02-14T00:25:27.735Z,22.20
2019-02-14T00:27:57.196Z,17.60
2019-02-14T00:30:26.664Z,24.03
2019-02-14T00:32:56.133Z,20.73
2019-02-14T00:35:25.620Z,24.53
2019-02-14T00:37:55.261Z,21.30
2019-02-14T00:40:24.971Z,22.50
2019-02-14T00:42:54.769Z,17.87
2019-02-14T00:45:24.223Z,21.50
2019-02-14T00:47:53.691Z,19.13
2019-02-14T00:50:23.597Z,19.53
2019-02-14T00:52:53.066Z,16.50
2019-02-14T00:55:22.804Z,21.53
2019-02-14T00:57:52.333Z,18.87
2019-02-14T01:00:21.819Z,16.87
2019-02-14T01:02:51.661Z,20.20
2019-02-14T01:05:21.228Z,18.23
2019-02-14T01:07:50.968Z,19.50
2019-02-14T01:10:20.455Z,18.70
2019-02-14T01:12:49.948Z,18.63
2019-02-14T01:15:21.115Z,18.53
2019-02-14T01:17:50.944Z,19.23
2019-02-14T01:20:20.403Z,17.93
2019-02-14T01:22:49.947Z,17.93
2019-02-14T01:25:19.639Z,18.33
2019-02-14T01:27:49.110Z,20.60
2019-02-14T01:30:18.736Z,16.00
2019-02-14T01:32:48.276Z,22.13
2019-02-14T01:35:18.076Z,19.13
2019-02-14T01:37:48.247Z,20.87
2019-02-14T01:40:17.885Z,18.60
2019-02-14T01:42:47.387Z,21.00
2019-02-14T01:45:16.851Z,19.63
2019-02-14T01:47:46.629Z,17.37
2019-02-14T01:50:16.350Z,16.53
2019-02-14T01:52:46.073Z,17.57
2019-02-14T01:55:15.524Z,16.10
2019-02-14T01:57:45.004Z,19.60
2019-02-14T02:00:16.005Z,14.00
2019-02-14T02:02:45.470Z,18.20
2019-02-14T02:05:15.316Z,15.77
2019-02-14T02:07:45.053Z,18.80
2019-02-14T02:10:14.942Z,16.83
2019-02-14T02:12:44.663Z,16.83
2019-02-14T02:15:14.780Z,18.20
2019-02-14T02:17:44.409Z,15.03
2019-02-14T02:20:14.383Z,16.07
2019-02-14T02:22:43.939Z,19.67
2019-02-14T02:25:13.584Z,17.93
2019-02-14T02:27:43.218Z,17.83
2019-02-14T02:30:14.879Z,17.87
2019-02-14T02:32:44.508Z,18.77
2019-02-14T02:35:13.983Z,18.80
2019-02-14T02:37:43.918Z,16.30
2019-02-14T02:40:13.944Z,18.33
2019-02-14T02:42:43.466Z,20.63
2019-02-14T02:45:13.497Z,15.07
2019-02-14T02:47:43.131Z,15.87
2019-02-14T02:50:13.143Z,14.63
2019-02-14T02:52:42.613Z,15.07
2019-02-14T02:55:12.086Z,17.57
2019-02-14T02:57:41.551Z,13.57
2019-02-14T03:00:16.453Z,14.40
2019-02-14T03:02:45.929Z,13.60
2019-02-14T03:05:15.970Z,14.60
2019-02-14T03:07:45.425Z,16.37
2019-02-14T03:10:15.005Z,12.40
2019-02-14T03:12:44.538Z,15.43
2019-02-14T03:15:15.057Z,16.90
2019-02-14T03:17:44.536Z,16.13
2019-02-14T03:20:14.142Z,13.47
2019-02-14T03:22:43.618Z,12.80
2019-02-14T03:25:15.522Z,18.67
2019-02-14T03:27:44.976Z,13.27
2019-02-14T03:30:15.986Z,14.47
2019-02-14T03:32:45.746Z,15.07
2019-02-14T03:35:15.240Z,13.90
2019-02-14T03:37:44.717Z,15.27
2019-02-14T03:40:15.191Z,15.63
2019-02-14T03:42:44.686Z,15.87
2019-02-14T03:45:20.662Z,12.33
2019-02-14T03:47:50.106Z,13.30
2019-02-14T03:50:19.586Z,14.40
2019-02-14T03:52:49.026Z,15.90
2019-02-14T03:55:22.003Z,12.43
2019-02-14T03:57:51.764Z,15.30
2019-02-14T04:00:21.228Z,13.63
2019-02-14T04:02:50.688Z,15.00
2019-02-14T04:05:20.147Z,12.70
2019-02-14T04:07:49.601Z,15.23
2019-02-14T04:10:19.425Z,12.47
2019-02-14T04:12:48.878Z,14.90
2019-02-14T04:15:18.801Z,17.00
2019-02-14T04:17:48.530Z,15.00
2019-02-14T04:20:18.009Z,13.57
2019-02-14T04:22:47.478Z,16.80
2019-02-14T04:25:17.264Z,12.00
2019-02-14T04:27:47.069Z,13.73
2019-02-14T04:30:16.592Z,17.87
2019-02-14T04:32:46.045Z,14.83
2019-02-14T04:35:15.527Z,14.30
2019-02-14T04:37:44.985Z,14.70
2019-02-14T04:40:14.459Z,19.10
2019-02-14T04:42:43.948Z,13.90
2019-02-14T04:45:13.789Z,14.17
2019-02-14T04:47:43.610Z,13.17
2019-02-14T04:50:13.070Z,13.00
2019-02-14T04:52:42.528Z,16.90
2019-02-14T04:55:12.266Z,12.77
2019-02-14T04:57:41.712Z,11.43
2019-02-14T05:00:15.682Z,16.53
2019-02-14T05:02:45.138Z,15.13
2019-02-14T05:05:14.876Z,14.47
2019-02-14T05:07:44.352Z,13.10
2019-02-14T05:10:13.964Z,13.27
2019-02-14T05:12:43.423Z,11.83
2019-02-14T05:15:13.130Z,12.57
2019-02-14T05:17:47.071Z,12.53
2019-02-14T05:20:16.525Z,12.13
2019-02-14T05:22:46.014Z,11.57
2019-02-14T05:25:15.466Z,12.20
2019-02-14T05:27:44.980Z,11.37
2019-02-14T05:30:16.370Z,9.73
2019-02-14T05:32:45.861Z,13.33
2019-02-14T05:35:15.696Z,11.70
2019-02-14T05:37:45.426Z,10.77
2019-02-14T05:40:14.909Z,11.10
2019-02-14T05:42:44.392Z,9.33
2019-02-14T05:45:14.417Z,10.67
2019-02-14T05:47:43.878Z,10.37
2019-02-14T05:50:14.749Z,11.13
2019-02-14T05:52:44.603Z,9.87
2019-02-14T05:55:14.051Z,9.73
2019-02-14T05:57:43.544Z,8.70
2019-02-14T06:00:17.683Z,12.03
2019-02-14T06:02:49.308Z,9.00
2019-02-14T06:05:19.307Z,9.53
2019-02-14T06:07:48.856Z,8.17
2019-02-14T06:10:18.745Z,9.00
2019-02-14T06:12:48.541Z,8.63
2019-02-14T06:15:17.990Z,11.50
2019-02-14T06:17:47.447Z,12.97
2019-02-14T06:20:17.262Z,8.27
2019-02-14T06:22:46.729Z,7.53
2019-02-14T06:25:16.173Z,10.57
2019-02-14T06:27:45.625Z,7.90
2019-02-14T06:30:15.922Z,10.17
2019-02-14T06:32:45.390Z,8.50
2019-02-14T06:35:15.133Z,8.90
2019-02-14T06:37:44.610Z,9.23
2019-02-14T06:40:14.437Z,8.33
2019-02-14T06:42:43.924Z,11.67
2019-02-14T06:45:15.562Z,8.93
2019-02-14T06:47:45.186Z,9.33
2019-02-14T06:50:14.651Z,13.90
2019-02-14T06:52:44.119Z,15.60
2019-02-14T06:55:13.856Z,13.03
2019-02-14T06:57:43.338Z,11.07
2019-02-14T07:00:17.423Z,15.70
2019-02-14T07:02:47.486Z,9.97
2019-02-14T07:05:17.030Z,8.53
2019-02-14T07:07:46.466Z,9.30
2019-02-14T07:10:15.915Z,10.53
2019-02-14T07:12:45.367Z,9.80
2019-02-14T07:15:15.213Z,9.57
2019-02-14T07:17:44.673Z,9.37
2019-02-14T07:20:18.725Z,10.07
2019-02-14T07:22:48.189Z,7.67
2019-02-14T07:25:17.651Z,11.43
2019-02-14T07:27:47.122Z,13.90
2019-02-14T07:30:21.347Z,8.83
2019-02-14T07:32:50.845Z,14.33
2019-02-14T07:35:20.296Z,8.67
2019-02-14T07:37:50.019Z,9.20
2019-02-14T07:40:19.766Z,9.77
2019-02-14T07:42:49.230Z,10.00
2019-02-14T07:45:19.429Z,10.23
2019-02-14T07:47:48.874Z,9.07
2019-02-14T07:50:18.332Z,8.03
2019-02-14T07:52:48.059Z,9.13
2019-02-14T07:55:18.188Z,9.30
2019-02-14T07:57:47.689Z,10.57
2019-02-14T08:00:20.755Z,12.87
2019-02-14T08:02:50.232Z,7.53
2019-02-14T08:05:19.675Z,7.33
2019-02-14T08:07:49.122Z,11.10
2019-02-14T08:10:19.492Z,9.93
2019-02-14T08:12:48.936Z,8.23
2019-02-14T08:15:18.425Z,12.13
2019-02-14T08:17:48.210Z,12.50
2019-02-14T08:20:19.283Z,8.90
2019-02-14T08:22:48.725Z,7.50
2019-02-14T08:25:18.196Z,10.37
2019-02-14T08:27:47.685Z,9.97
2019-02-14T08:30:18.704Z,12.13
2019-02-14T08:32:48.147Z,8.47
2019-02-14T08:35:17.644Z,8.83
2019-02-14T08:37:47.067Z,9.73
2019-02-14T08:40:28.611Z,9.03
2019-02-14T08:42:58.845Z,12.40
2019-02-14T08:45:28.384Z,12.10
2019-02-14T08:47:57.887Z,11.43
2019-02-14T08:50:27.627Z,12.27
2019-02-14T08:52:57.088Z,11.43
2019-02-14T08:55:26.557Z,9.00
2019-02-14T08:57:56.117Z,10.10
2019-02-14T09:00:25.585Z,13.87
2019-02-14T09:02:55.040Z,10.10
2019-02-14T09:05:25.015Z,10.93
2019-02-14T09:07:55.172Z,11.30
2019-02-14T09:10:24.713Z,14.23
2019-02-14T09:12:54.331Z,11.83
2019-02-14T09:15:23.765Z,10.67
2019-02-14T09:17:53.229Z,12.17
2019-02-14T09:20:22.722Z,10.43
2019-02-14T09:22:52.187Z,10.53
2019-02-14T09:25:21.720Z,13.47
2019-02-14T09:27:51.173Z,9.37
2019-02-14T09:30:20.826Z,12.63
2019-02-14T09:32:50.601Z,9.53
2019-02-14T09:35:20.073Z,11.63
2019-02-14T09:37:49.529Z,10.17
2019-02-14T09:40:19.181Z,9.43
2019-02-14T09:42:48.649Z,9.50
2019-02-14T09:45:18.384Z,10.70
2019-02-14T09:47:48.345Z,12.10
2019-02-14T09:50:18.069Z,10.43
2019-02-14T09:52:47.618Z,13.07
2019-02-14T09:55:17.073Z,11.33
2019-02-14T09:57:46.543Z,9.47
2019-02-14T10:00:17.344Z,10.23
2019-02-14T10:02:46.827Z,11.87
2019-02-14T10:05:16.529Z,10.20
2019-02-14T10:07:46.035Z,17.03
2019-02-14T10:10:18.627Z,13.97
2019-02-14T10:12:48.435Z,13.17
2019-02-14T10:15:18.250Z,10.67
2019-02-14T10:17:47.720Z,10.97
2019-02-14T10:20:17.914Z,12.33
2019-02-14T10:22:47.385Z,12.73
2019-02-14T10:25:17.130Z,11.80
2019-02-14T10:27:46.598Z,15.97
2019-02-14T10:30:20.523Z,14.23
2019-02-14T10:32:50.267Z,13.73
2019-02-14T10:35:19.720Z,11.13
2019-02-14T10:37:49.197Z,15.00
2019-02-14T10:40:18.653Z,13.50
2019-02-14T10:42:48.138Z,11.63
2019-02-14T10:45:22.244Z,12.33
2019-02-14T10:47:51.729Z,11.70
2019-02-14T10:50:21.468Z,14.23
2019-02-14T10:52:50.976Z,15.80
2019-02-14T10:55:20.436Z,12.37
2019-02-14T10:57:49.926Z,14.90
2019-02-14T11:00:25.117Z,14.57
2019-02-14T11:02:54.639Z,11.67
2019-02-14T11:05:24.274Z,12.87
2019-02-14T11:07:53.740Z,12.63
2019-02-14T11:10:23.203Z,15.07
2019-02-14T11:12:52.689Z,13.87
2019-02-14T11:15:23.888Z,12.47
2019-02-14T11:17:53.378Z,12.00
2019-02-14T11:20:22.852Z,10.63
2019-02-14T11:22:52.492Z,9.43
2019-02-14T11:25:25.491Z,11.77
2019-02-14T11:27:54.971Z,12.90
2019-02-14T11:30:24.703Z,9.90
2019-02-14T11:32:54.181Z,10.33
2019-02-14T11:35:23.648Z,9.60
2019-02-14T11:37:53.439Z,12.40
2019-02-14T11:40:22.900Z,12.53
2019-02-14T11:42:52.627Z,10.07
2019-02-14T11:45:28.938Z,11.83
2019-02-14T11:47:58.727Z,12.30
2019-02-14T11:50:28.188Z,11.60
2019-02-14T11:52:57.668Z,11.07
2019-02-14T11:55:27.126Z,13.27
2019-02-14T11:57:56.594Z,11.87
2019-02-14T12:00:27.458Z,12.70
2019-02-14T12:02:56.935Z,10.00
2019-02-14T12:05:26.428Z,8.70
2019-02-14T12:07:55.888Z,10.80
2019-02-14T12:10:25.375Z,10.37
2019-02-14T12:12:54.894Z,12.83
2019-02-14T12:15:24.349Z,9.63
2019-02-14T12:17:53.816Z,11.87
2019-02-14T12:20:23.270Z,10.00
2019-02-14T12:22:52.752Z,10.70
2019-02-14T12:25:27.807Z,10.90
2019-02-14T12:27:57.305Z,10.77
2019-02-14T12:30:26.774Z,10.03
2019-02-14T12:32:56.241Z,9.00
2019-02-14T12:35:25.711Z,10.40
2019-02-14T12:37:55.515Z,10.47
2019-02-14T12:40:24.971Z,9.90
2019-02-14T12:42:54.461Z,11.53
2019-02-14T12:45:26.220Z,11.17
2019-02-14T12:47:55.810Z,12.53
2019-02-14T12:50:25.287Z,13.07
2019-02-14T12:52:54.762Z,13.77
2019-02-14T12:55:24.223Z,12.63
2019-02-14T12:57:54.014Z,10.87
2019-02-14T13:00:24.549Z,9.80
2019-02-14T13:02:54.015Z,10.37
2019-02-14T13:05:23.471Z,11.83
2019-02-14T13:07:52.966Z,10.27
2019-02-14T13:10:22.880Z,10.60
2019-02-14T13:12:52.693Z,9.07
2019-02-14T13:15:27.019Z,9.37
2019-02-14T13:17:56.481Z,11.43
2019-02-14T13:20:26.238Z,10.10
2019-02-14T13:22:56.067Z,9.60
2019-02-14T13:25:25.538Z,11.87
2019-02-14T13:27:55.169Z,11.47
2019-02-14T13:30:26.989Z,10.33
2019-02-14T13:32:56.743Z,9.20
2019-02-14T13:35:26.539Z,8.67
2019-02-14T13:37:55.995Z,10.30
2019-02-14T13:40:25.459Z,9.27
2019-02-14T13:42:55.265Z,9.30
2019-02-14T13:45:25.012Z,10.60
2019-02-14T13:47:54.483Z,9.67
2019-02-14T13:50:24.035Z,9.37
2019-02-14T13:52:53.500Z,8.27
2019-02-14T13:55:23.070Z,9.23
2019-02-14T13:57:52.527Z,8.40
2019-02-14T14:00:25.803Z,7.70
2019-02-14T14:02:55.298Z,8.60
2019-02-14T14:05:24.788Z,8.20
2019-02-14T14:07:54.258Z,10.50
2019-02-14T14:10:24.117Z,8.57
2019-02-14T14:12:53.856Z,7.17
2019-02-14T14:15:23.499Z,10.10
2019-02-14T14:17:53.264Z,6.97
2019-02-14T14:20:22.733Z,7.23
2019-02-14T14:22:52.190Z,7.77
2019-02-14T14:25:21.672Z,8.83
2019-02-14T14:27:51.127Z,9.87
2019-02-14T14:30:20.600Z,8.63
2019-02-14T14:32:50.058Z,7.40
2019-02-14T14:35:19.528Z,6.63
2019-02-14T14:37:48.986Z,10.33
2019-02-14T14:40:20.376Z,6.53
2019-02-14T14:42:51.670Z,8.97
2019-02-14T14:45:23.067Z,7.97
2019-02-14T14:47:52.525Z,9.67
2019-02-14T14:50:21.988Z,8.30
2019-02-14T14:52:51.443Z,8.07
2019-02-14T14:55:20.912Z,9.80
2019-02-14T14:57:50.679Z,8.80
2019-02-14T15:00:20.191Z,10.17
2019-02-14T15:02:49.649Z,5.70
2019-02-14T15:05:19.142Z,6.90
2019-02-14T15:07:48.598Z,7.40
2019-02-14T15:10:18.055Z,7.70
2019-02-14T15:12:47.516Z,9.37
2019-02-14T15:15:16.993Z,6.80
2019-02-14T15:17:46.849Z,8.03
2019-02-14T15:20:16.333Z,10.37
2019-02-14T15:22:46.150Z,6.20
2019-02-14T15:25:15.630Z,10.27
2019-02-14T15:27:45.091Z,9.20
2019-02-14T15:30:14.825Z,8.90
2019-02-14T15:32:44.273Z,6.97
2019-02-14T15:35:13.747Z,5.57
2019-02-14T15:37:44.543Z,9.30
2019-02-14T15:40:14.389Z,8.37
2019-02-14T15:42:43.857Z,5.57
2019-02-14T15:45:13.312Z,9.10
2019-02-14T15:47:42.787Z,9.37
2019-02-14T15:50:12.251Z,8.00
2019-02-14T15:52:41.720Z,8.47
2019-02-14T15:55:11.181Z,11.30
2019-02-14T15:57:42.886Z,12.40
2019-02-14T16:00:13.307Z,11.13
2019-02-14T16:02:42.777Z,7.77
2019-02-14T16:05:12.246Z,11.43
2019-02-14T16:07:41.756Z,9.47
2019-02-14T16:10:18.118Z,10.23
2019-02-14T16:12:43.970Z,9.03
2019-02-14T16:15:13.565Z,8.77
2019-02-14T16:17:43.270Z,13.70
2019-02-14T16:20:12.903Z,8.63
2019-02-14T16:22:44.079Z,11.07
2019-02-14T16:25:13.605Z,11.30
2019-02-14T16:27:43.101Z,9.50
2019-02-14T16:30:12.583Z,13.47
2019-02-14T16:32:42.048Z,14.20
2019-02-14T16:35:11.586Z,10.97
2019-02-14T16:37:41.081Z,12.17
2019-02-14T16:40:10.587Z,12.07
2019-02-14T16:42:40.604Z,19.60
2019-02-14T16:45:11.650Z,15.83
2019-02-14T16:47:42.286Z,14.90
2019-02-14T16:50:11.749Z,15.40
2019-02-14T16:54:52.984Z,19.63
2019-02-14T16:57:22.744Z,13.57
2019-02-14T16:59:52.597Z,18.43
2019-02-14T17:02:22.088Z,18.90
2019-02-14T17:04:51.915Z,17.60
2019-02-14T17:07:21.408Z,12.03
2019-02-14T17:09:50.890Z,13.60
2019-02-14T17:12:20.376Z,16.90
2019-02-14T17:14:50.659Z,18.33
2019-02-14T17:17:27.686Z,15.77
2019-02-14T17:19:51.439Z,14.33
2019-02-14T17:22:21.921Z,16.03
2019-02-14T17:24:51.514Z,13.63
2019-02-14T17:27:20.973Z,13.77
2019-02-14T17:29:50.773Z,15.33
2019-02-14T17:32:20.257Z,13.93
2019-02-14T17:34:50.487Z,14.03
2019-02-14T17:37:19.956Z,13.97
2019-02-14T17:39:49.828Z,15.83
2019-02-14T17:42:19.618Z,18.50
2019-02-14T17:44:49.105Z,12.60
2019-02-14T17:47:18.576Z,16.00
2019-02-14T17:49:48.340Z,20.53
2019-02-14T17:52:17.819Z,29.03
2019-02-14T17:54:47.691Z,21.93
2019-02-14T17:57:17.169Z,15.27
2019-02-14T17:59:46.670Z,27.87
2019-02-14T18:02:17.908Z,92.40
2019-02-14T18:04:47.519Z,31.73
2019-02-14T18:07:16.984Z,17.87
2019-02-14T18:09:46.485Z,15.53
2019-02-14T18:12:16.387Z,16.63
2019-02-14T18:14:46.216Z,15.50
2019-02-14T18:17:15.690Z,15.57
2019-02-14T18:19:45.175Z,13.53
2019-02-14T18:22:14.726Z,12.27
2019-02-14T18:24:44.214Z,20.20
2019-02-14T18:27:13.699Z,14.37
2019-02-14T18:29:43.180Z,18.77
2019-02-14T18:32:12.915Z,20.60
2019-02-14T18:34:42.420Z,16.43
2019-02-14T18:37:12.235Z,21.30
2019-02-14T18:39:41.718Z,15.43
2019-02-14T18:42:11.189Z,19.60
2019-02-14T18:44:40.957Z,21.20
2019-02-14T18:47:10.426Z,21.70
2019-02-14T18:49:39.919Z,21.23
2019-02-14T18:52:09.390Z,16.80
2019-02-14T18:54:38.877Z,14.67
2019-02-14T18:57:08.744Z,19.20
2019-02-14T18:59:38.225Z,18.00
2019-02-14T19:02:07.986Z,21.03
2019-02-14T19:04:37.458Z,18.43
2019-02-14T19:09:27.714Z,19.10
2019-02-14T19:11:57.198Z,15.63
2019-02-14T19:14:26.672Z,13.00
2019-02-14T19:16:56.139Z,14.40
2019-02-14T19:19:25.621Z,13.47
2019-02-14T19:21:55.094Z,14.93
2019-02-14T19:24:24.599Z,20.97
2019-02-14T19:26:54.060Z,16.40
2019-02-14T19:29:24.072Z,13.97
2019-02-14T19:31:53.779Z,13.03
2019-02-14T19:34:23.265Z,13.57
2019-02-14T19:36:52.752Z,17.13
2019-02-14T19:39:22.236Z,16.30
2019-02-14T19:41:51.726Z,16.07
2019-02-14T19:44:21.525Z,16.27
2019-02-14T19:46:51.026Z,15.57
2019-02-14T19:49:20.499Z,12.77
2019-02-14T19:51:50.015Z,16.80
2019-02-14T19:54:19.444Z,13.53
2019-02-14T19:56:49.267Z,16.23
2019-02-14T19:59:18.746Z,17.07
2019-02-14T20:01:48.215Z,14.90
2019-02-14T20:04:18.091Z,13.00
2019-02-14T20:06:47.946Z,15.20
2019-02-14T20:09:17.398Z,12.57
2019-02-14T20:11:46.881Z,20.70
2019-02-14T20:14:16.395Z,14.00
2019-02-14T20:16:45.873Z,15.87
2019-02-14T20:19:15.338Z,15.63
2019-02-14T20:21:44.815Z,13.50
2019-02-14T20:24:14.299Z,15.17
2019-02-14T20:26:43.768Z,16.47
2019-02-14T20:29:13.274Z,17.07
2019-02-14T20:31:42.909Z,14.67
2019-02-14T20:34:12.465Z,16.60
2019-02-14T20:36:41.912Z,17.77
2019-02-14T20:39:11.405Z,18.43
2019-02-14T20:41:46.047Z,13.43
2019-02-14T20:44:12.073Z,16.37
2019-02-14T20:46:41.548Z,13.20
2019-02-14T20:49:11.026Z,16.47
2019-02-14T20:51:40.517Z,13.63
2019-02-14T20:54:09.988Z,14.20
2019-02-14T20:56:39.476Z,14.97
2019-02-14T20:59:08.964Z,11.80
2019-02-14T21:01:38.526Z,16.43
2019-02-14T21:04:07.998Z,18.17
2019-02-14T21:06:37.486Z,13.53
2019-02-14T21:09:06.972Z,14.03
2019-02-14T21:11:36.439Z,15.37
2019-02-14T21:14:06.233Z,15.37
2019-02-14T21:16:36.010Z,13.47
2019-02-14T21:19:05.498Z,16.67
2019-02-14T21:21:35.385Z,14.57
2019-02-14T21:24:04.823Z,20.27
2019-02-14T21:26:34.291Z,17.47
2019-02-14T21:29:03.769Z,15.17
2019-02-14T21:31:33.290Z,19.40
2019-02-14T21:34:02.841Z,14.43
2019-02-14T21:36:32.581Z,14.57
2019-02-14T21:39:02.058Z,13.50
2019-02-14T21:41:31.523Z,17.97
2019-02-14T21:44:01.027Z,13.03
2019-02-14T21:46:30.528Z,20.33
2019-02-14T21:48:59.985Z,15.93
2019-02-14T21:51:29.651Z,14.30
2019-02-14T21:53:59.161Z,17.33
2019-02-14T21:56:28.636Z,19.77
2019-02-14T21:58:58.103Z,15.27
2019-02-14T22:01:27.760Z,19.90
2019-02-14T22:03:57.565Z,18.77
2019-02-14T22:06:27.050Z,22.77
2019-02-14T22:08:56.562Z,18.50
2019-02-14T22:11:26.041Z,19.60
2019-02-14T22:13:55.551Z,17.03
2019-02-14T22:16:25.069Z,16.27
2019-02-14T22:18:54.546Z,17.93
2019-02-14T22:21:24.041Z,19.30
2019-02-14T22:23:53.532Z,17.23
2019-02-14T22:26:23.001Z,17.00
2019-02-14T22:28:52.823Z,18.60
2019-02-14T22:31:22.635Z,17.27
2019-02-14T22:33:52.105Z,16.40
2019-02-14T22:36:21.595Z,17.13
2019-02-14T22:38:51.074Z,16.43
2019-02-14T22:41:20.579Z,19.23
2019-02-14T22:43:50.364Z,17.30
2019-02-14T22:46:20.179Z,19.47
2019-02-14T22:48:50.001Z,17.97
2019-02-14T22:51:19.504Z,18.83
2019-02-14T22:53:48.998Z,18.37
2019-02-14T22:56:18.487Z,18.13
2019-02-14T22:58:47.966Z,20.40
2019-02-14T23:01:17.462Z,18.07
2019-02-14T23:03:47.230Z,15.53
2019-02-14T23:06:17.044Z,18.17
2019-02-14T23:08:46.517Z,18.23
2019-02-14T23:11:16.022Z,19.23
2019-02-14T23:13:45.520Z,22.00
2019-02-14T23:16:15.005Z,18.57
2019-02-14T23:18:44.483Z,16.83
2019-02-14T23:21:13.957Z,21.37
2019-02-14T23:23:43.443Z,18.77
2019-02-14T23:26:13.172Z,16.00
2019-02-14T23:28:42.821Z,19.03
2019-02-14T23:31:12.291Z,22.57
2019-02-14T23:33:41.791Z,21.93
2019-02-14T23:36:11.539Z,21.70
2019-02-14T23:38:41.012Z,21.67
2019-02-14T23:41:10.572Z,21.13
2019-02-14T23:43:40.307Z,21.53
2019-02-14T23:46:10.084Z,21.47
2019-02-14T23:48:39.573Z,19.43
2019-02-14T23:51:09.047Z,19.03
2019-02-14T23:53:38.836Z,22.90
2019-02-14T23:56:08.306Z,20.97
2019-02-14T23:58:37.796Z,22.07
